sensor_id;sensor_type;location;lat;lon;timestamp;temperature;humidity
12309;DHT22;6217;48.150;17.142;2023-02-08T00:02:14;-0.40;70.80
12309;DHT22;6217;48.150;17.142;2023-02-08T00:06:20;-0.50;70.90
12309;DHT22;6217;48.150;17.142;2023-02-08T00:10:26;-0.50;70.80
12309;DHT22;6217;48.150;17.142;2023-02-08T00:14:32;-0.60;71.00
12309;DHT22;6217;48.150;17.142;2023-02-08T00:18:38;-0.70;71.40
12309;DHT22;6217;48.150;17.142;2023-02-08T00:22:44;-0.70;71.80
12309;DHT22;6217;48.150;17.142;2023-02-08T00:26:50;-0.80;71.80
12309;DHT22;6217;48.150;17.142;2023-02-08T00:30:56;-0.80;71.80
12309;DHT22;6217;48.150;17.142;2023-02-08T00:35:02;-0.70;71.60
12309;DHT22;6217;48.150;17.142;2023-02-08T00:39:10;-0.70;71.40
12309;DHT22;6217;48.150;17.142;2023-02-08T00:43:16;-0.80;71.50
12309;DHT22;6217;48.150;17.142;2023-02-08T00:47:23;-0.80;71.60
12309;DHT22;6217;48.150;17.142;2023-02-08T00:51:29;-0.80;71.80
12309;DHT22;6217;48.150;17.142;2023-02-08T00:55:35;-0.90;72.60
12309;DHT22;6217;48.150;17.142;2023-02-08T00:59:43;-0.90;72.10
12309;DHT22;6217;48.150;17.142;2023-02-08T01:03:49;-1.00;72.30
12309;DHT22;6217;48.150;17.142;2023-02-08T01:07:55;-1.00;72.50
12309;DHT22;6217;48.150;17.142;2023-02-08T01:12:02;-1.10;72.50
12309;DHT22;6217;48.150;17.142;2023-02-08T01:16:26;-1.10;72.50
12309;DHT22;6217;48.150;17.142;2023-02-08T01:20:35;-1.10;72.70
12309;DHT22;6217;48.150;17.142;2023-02-08T01:24:42;-1.10;72.60
12309;DHT22;6217;48.150;17.142;2023-02-08T01:28:49;-1.20;72.60
12309;DHT22;6217;48.150;17.142;2023-02-08T01:32:55;-1.20;72.60
12309;DHT22;6217;48.150;17.142;2023-02-08T01:37:01;-1.20;72.60
12309;DHT22;6217;48.150;17.142;2023-02-08T01:41:14;-1.10;72.60
12309;DHT22;6217;48.150;17.142;2023-02-08T01:45:27;-1.20;72.50
12309;DHT22;6217;48.150;17.142;2023-02-08T01:49:36;-1.20;72.50
12309;DHT22;6217;48.150;17.142;2023-02-08T01:53:42;-1.20;72.50
12309;DHT22;6217;48.150;17.142;2023-02-08T01:57:56;-1.20;72.70
12309;DHT22;6217;48.150;17.142;2023-02-08T02:02:06;-1.30;72.70
12309;DHT22;6217;48.150;17.142;2023-02-08T02:06:17;-1.20;72.90
12309;DHT22;6217;48.150;17.142;2023-02-08T02:10:30;-1.20;72.80
12309;DHT22;6217;48.150;17.142;2023-02-08T02:14:38;-1.20;72.80
12309;DHT22;6217;48.150;17.142;2023-02-08T02:18:44;-1.20;72.70
12309;DHT22;6217;48.150;17.142;2023-02-08T02:28:13;-1.20;72.90
12309;DHT22;6217;48.150;17.142;2023-02-08T02:33:19;-1.20;72.80
12309;DHT22;6217;48.150;17.142;2023-02-08T02:37:59;-1.20;72.80
12309;DHT22;6217;48.150;17.142;2023-02-08T02:56:24;-1.40;73.00
12309;DHT22;6217;48.150;17.142;2023-02-08T03:00:32;-1.30;73.30
12309;DHT22;6217;48.150;17.142;2023-02-08T03:23:28;-1.40;73.30
12309;DHT22;6217;48.150;17.142;2023-02-08T03:28:27;-1.30;73.20
12309;DHT22;6217;48.150;17.142;2023-02-08T03:36:48;-1.40;73.30
12309;DHT22;6217;48.150;17.142;2023-02-08T03:40:59;-1.40;73.20
12309;DHT22;6217;48.150;17.142;2023-02-08T03:45:38;-1.40;73.10
12309;DHT22;6217;48.150;17.142;2023-02-08T03:49:50;-1.40;73.20
12309;DHT22;6217;48.150;17.142;2023-02-08T03:54:00;-1.50;73.40
12309;DHT22;6217;48.150;17.142;2023-02-08T03:58:17;-1.60;73.60
12309;DHT22;6217;48.150;17.142;2023-02-08T04:02:29;-1.60;73.90
12309;DHT22;6217;48.150;17.142;2023-02-08T04:06:37;-1.60;74.00
12309;DHT22;6217;48.150;17.142;2023-02-08T04:10:44;-1.60;74.20
12309;DHT22;6217;48.150;17.142;2023-02-08T04:14:50;-1.50;74.10
12309;DHT22;6217;48.150;17.142;2023-02-08T04:18:56;-1.50;74.10
12309;DHT22;6217;48.150;17.142;2023-02-08T04:23:02;-1.50;74.10
12309;DHT22;6217;48.150;17.142;2023-02-08T04:27:08;-1.50;74.20
12309;DHT22;6217;48.150;17.142;2023-02-08T04:31:14;-1.60;74.30
12309;DHT22;6217;48.150;17.142;2023-02-08T04:35:19;-1.60;74.20
12309;DHT22;6217;48.150;17.142;2023-02-08T04:39:25;-1.70;74.40
12309;DHT22;6217;48.150;17.142;2023-02-08T04:43:31;-1.80;74.70
12309;DHT22;6217;48.150;17.142;2023-02-08T04:47:37;-1.70;74.70
12309;DHT22;6217;48.150;17.142;2023-02-08T04:51:43;-1.70;74.80
12309;DHT22;6217;48.150;17.142;2023-02-08T04:55:49;-1.70;74.70
12309;DHT22;6217;48.150;17.142;2023-02-08T04:59:55;-1.70;74.90
12309;DHT22;6217;48.150;17.142;2023-02-08T05:04:01;-1.70;74.40
12309;DHT22;6217;48.150;17.142;2023-02-08T05:08:07;-1.80;74.40
12309;DHT22;6217;48.150;17.142;2023-02-08T05:12:13;-1.80;74.60
12309;DHT22;6217;48.150;17.142;2023-02-08T05:16:19;-1.90;74.90
12309;DHT22;6217;48.150;17.142;2023-02-08T05:20:25;-1.90;75.20
12309;DHT22;6217;48.150;17.142;2023-02-08T05:24:30;-1.90;75.40
12309;DHT22;6217;48.150;17.142;2023-02-08T05:28:37;-1.80;75.20
12309;DHT22;6217;48.150;17.142;2023-02-08T05:32:42;-1.80;75.20
12309;DHT22;6217;48.150;17.142;2023-02-08T05:36:48;-1.80;75.10
12309;DHT22;6217;48.150;17.142;2023-02-08T05:40:54;-1.90;75.40
12309;DHT22;6217;48.150;17.142;2023-02-08T05:45:00;-1.90;75.70
12309;DHT22;6217;48.150;17.142;2023-02-08T05:49:06;-1.80;75.70
12309;DHT22;6217;48.150;17.142;2023-02-08T05:53:12;-1.70;75.60
12309;DHT22;6217;48.150;17.142;2023-02-08T05:57:18;-1.70;75.80
12309;DHT22;6217;48.150;17.142;2023-02-08T06:01:24;-1.60;75.70
12309;DHT22;6217;48.150;17.142;2023-02-08T06:05:30;-1.70;75.90
12309;DHT22;6217;48.150;17.142;2023-02-08T06:09:36;-1.70;76.10
12309;DHT22;6217;48.150;17.142;2023-02-08T06:13:42;-1.60;76.50
12309;DHT22;6217;48.150;17.142;2023-02-08T06:17:48;-1.50;76.10
12309;DHT22;6217;48.150;17.142;2023-02-08T06:21:54;-1.40;75.90
12309;DHT22;6217;48.150;17.142;2023-02-08T06:26:01;-1.40;75.80
12309;DHT22;6217;48.150;17.142;2023-02-08T06:30:07;-1.40;75.80
12309;DHT22;6217;48.150;17.142;2023-02-08T06:34:13;-1.40;75.80
12309;DHT22;6217;48.150;17.142;2023-02-08T06:38:19;-1.40;75.70
12309;DHT22;6217;48.150;17.142;2023-02-08T06:42:26;-1.50;76.80
12309;DHT22;6217;48.150;17.142;2023-02-08T06:46:32;-1.30;76.20
12309;DHT22;6217;48.150;17.142;2023-02-08T06:50:38;-1.10;75.90
12309;DHT22;6217;48.150;17.142;2023-02-08T06:54:44;-0.90;75.80
12309;DHT22;6217;48.150;17.142;2023-02-08T06:58:50;-0.70;75.40
12309;DHT22;6217;48.150;17.142;2023-02-08T07:02:57;-0.60;75.40
12309;DHT22;6217;48.150;17.142;2023-02-08T07:07:03;-0.40;75.80
12309;DHT22;6217;48.150;17.142;2023-02-08T07:11:11;-0.10;75.50
12309;DHT22;6217;48.150;17.142;2023-02-08T07:15:19;0.10;75.40
12309;DHT22;6217;48.150;17.142;2023-02-08T07:19:25;0.30;75.10
12309;DHT22;6217;48.150;17.142;2023-02-08T07:23:32;0.50;74.90
12309;DHT22;6217;48.150;17.142;2023-02-08T07:27:38;0.50;75.20
12309;DHT22;6217;48.150;17.142;2023-02-08T07:31:43;0.60;75.10
12309;DHT22;6217;48.150;17.142;2023-02-08T07:35:50;0.70;75.60
12309;DHT22;6217;48.150;17.142;2023-02-08T07:39:56;1.00;75.20
12309;DHT22;6217;48.150;17.142;2023-02-08T07:44:02;1.10;75.00
12309;DHT22;6217;48.150;17.142;2023-02-08T07:48:08;1.30;74.40
12309;DHT22;6217;48.150;17.142;2023-02-08T07:52:14;1.50;74.10
12309;DHT22;6217;48.150;17.142;2023-02-08T07:56:20;1.50;73.90
12309;DHT22;6217;48.150;17.142;2023-02-08T08:00:26;1.70;73.70
12309;DHT22;6217;48.150;17.142;2023-02-08T08:04:32;2.00;73.40
12309;DHT22;6217;48.150;17.142;2023-02-08T08:08:38;2.10;73.00
12309;DHT22;6217;48.150;17.142;2023-02-08T08:12:44;2.10;73.20
12309;DHT22;6217;48.150;17.142;2023-02-08T08:16:50;2.10;73.40
12309;DHT22;6217;48.150;17.142;2023-02-08T08:20:56;2.30;73.10
12309;DHT22;6217;48.150;17.142;2023-02-08T08:25:01;2.30;72.60
12309;DHT22;6217;48.150;17.142;2023-02-08T08:29:07;2.30;73.00
12309;DHT22;6217;48.150;17.142;2023-02-08T08:33:13;2.40;72.40
12309;DHT22;6217;48.150;17.142;2023-02-08T08:37:19;2.30;72.50
12309;DHT22;6217;48.150;17.142;2023-02-08T08:41:25;2.30;72.80
12309;DHT22;6217;48.150;17.142;2023-02-08T08:45:32;2.30;73.00
12309;DHT22;6217;48.150;17.142;2023-02-08T08:49:40;2.40;73.00
12309;DHT22;6217;48.150;17.142;2023-02-08T08:53:48;2.70;72.30
12309;DHT22;6217;48.150;17.142;2023-02-08T08:57:54;2.90;71.50
12309;DHT22;6217;48.150;17.142;2023-02-08T09:02:00;2.80;71.30
12309;DHT22;6217;48.150;17.142;2023-02-08T09:06:05;2.80;71.00
12309;DHT22;6217;48.150;17.142;2023-02-08T09:10:11;2.70;70.90
12309;DHT22;6217;48.150;17.142;2023-02-08T09:14:17;2.90;71.00
12309;DHT22;6217;48.150;17.142;2023-02-08T09:18:23;3.30;70.30
12309;DHT22;6217;48.150;17.142;2023-02-08T09:22:29;3.40;68.30
12309;DHT22;6217;48.150;17.142;2023-02-08T09:26:36;3.30;68.40
12309;DHT22;6217;48.150;17.142;2023-02-08T09:30:42;3.20;68.00
12309;DHT22;6217;48.150;17.142;2023-02-08T09:34:49;3.30;68.60
12309;DHT22;6217;48.150;17.142;2023-02-08T09:38:57;3.30;68.60
12309;DHT22;6217;48.150;17.142;2023-02-08T09:43:46;3.30;68.10
12309;DHT22;6217;48.150;17.142;2023-02-08T09:52:37;3.20;68.90
12309;DHT22;6217;48.150;17.142;2023-02-08T09:56:45;3.30;68.80
12309;DHT22;6217;48.150;17.142;2023-02-08T10:00:53;3.50;68.80
12309;DHT22;6217;48.150;17.142;2023-02-08T10:05:04;3.70;67.80
12309;DHT22;6217;48.150;17.142;2023-02-08T10:09:13;3.70;67.00
12309;DHT22;6217;48.150;17.142;2023-02-08T10:27:43;4.00;65.90
12309;DHT22;6217;48.150;17.142;2023-02-08T10:36:28;4.20;65.40
12309;DHT22;6217;48.150;17.142;2023-02-08T10:40:38;4.30;65.40
12309;DHT22;6217;48.150;17.142;2023-02-08T10:53:57;3.90;64.30
12309;DHT22;6217;48.150;17.142;2023-02-08T10:58:04;3.80;64.30
12309;DHT22;6217;48.150;17.142;2023-02-08T11:02:25;3.80;64.90
12309;DHT22;6217;48.150;17.142;2023-02-08T11:06:32;3.60;64.60
12309;DHT22;6217;48.150;17.142;2023-02-08T11:10:39;3.60;64.90
12309;DHT22;6217;48.150;17.142;2023-02-08T11:14:52;3.50;65.00
12309;DHT22;6217;48.150;17.142;2023-02-08T11:19:00;3.40;65.00
12309;DHT22;6217;48.150;17.142;2023-02-08T11:23:37;3.50;64.90
12309;DHT22;6217;48.150;17.142;2023-02-08T11:27:47;3.80;65.00
12309;DHT22;6217;48.150;17.142;2023-02-08T11:31:57;3.90;64.50
12309;DHT22;6217;48.150;17.142;2023-02-08T11:36:10;4.20;64.00
12309;DHT22;6217;48.150;17.142;2023-02-08T11:40:33;4.60;63.50
12309;DHT22;6217;48.150;17.142;2023-02-08T11:44:42;4.80;62.70
12309;DHT22;6217;48.150;17.142;2023-02-08T11:48:50;4.90;62.80
12309;DHT22;6217;48.150;17.142;2023-02-08T11:53:05;4.90;62.50
12309;DHT22;6217;48.150;17.142;2023-02-08T11:57:16;5.10;62.50
12309;DHT22;6217;48.150;17.142;2023-02-08T12:01:32;5.20;61.30
12309;DHT22;6217;48.150;17.142;2023-02-08T12:05:56;5.00;60.50
12309;DHT22;6217;48.150;17.142;2023-02-08T12:14:51;4.60;61.10
12309;DHT22;6217;48.150;17.142;2023-02-08T12:19:51;4.40;61.40
12309;DHT22;6217;48.150;17.142;2023-02-08T12:28:54;4.30;61.70
12309;DHT22;6217;48.150;17.142;2023-02-08T12:33:14;4.10;61.30
12309;DHT22;6217;48.150;17.142;2023-02-08T12:38:01;4.10;61.70
12309;DHT22;6217;48.150;17.142;2023-02-08T12:42:53;4.00;61.80
12309;DHT22;6217;48.150;17.142;2023-02-08T12:47:18;4.00;62.00
12309;DHT22;6217;48.150;17.142;2023-02-08T12:55:54;4.00;61.90
12309;DHT22;6217;48.150;17.142;2023-02-08T13:00:05;4.00;62.00
12309;DHT22;6217;48.150;17.142;2023-02-08T13:04:28;4.00;61.90
12309;DHT22;6217;48.150;17.142;2023-02-08T13:09:02;4.00;62.00
12309;DHT22;6217;48.150;17.142;2023-02-08T13:13:22;4.00;62.10
12309;DHT22;6217;48.150;17.142;2023-02-08T13:17:53;4.00;62.10
12309;DHT22;6217;48.150;17.142;2023-02-08T13:22:00;3.90;62.00
12309;DHT22;6217;48.150;17.142;2023-02-08T13:26:14;4.00;62.40
12309;DHT22;6217;48.150;17.142;2023-02-08T13:30:22;4.00;62.30
12309;DHT22;6217;48.150;17.142;2023-02-08T13:34:36;4.00;62.40
12309;DHT22;6217;48.150;17.142;2023-02-08T13:38:46;3.90;62.50
12309;DHT22;6217;48.150;17.142;2023-02-08T13:47:42;3.90;62.60
12309;DHT22;6217;48.150;17.142;2023-02-08T13:51:52;3.90;63.00
12309;DHT22;6217;48.150;17.142;2023-02-08T13:55:59;4.00;63.30
12309;DHT22;6217;48.150;17.142;2023-02-08T14:00:32;4.00;63.20
12309;DHT22;6217;48.150;17.142;2023-02-08T14:04:41;4.00;63.00
12309;DHT22;6217;48.150;17.142;2023-02-08T14:09:05;4.00;63.20
12309;DHT22;6217;48.150;17.142;2023-02-08T14:17:33;4.00;63.40
12309;DHT22;6217;48.150;17.142;2023-02-08T14:21:46;4.00;63.50
12309;DHT22;6217;48.150;17.142;2023-02-08T14:25:55;4.00;63.50
12309;DHT22;6217;48.150;17.142;2023-02-08T14:30:05;4.00;63.60
12309;DHT22;6217;48.150;17.142;2023-02-08T14:34:31;4.00;63.40
12309;DHT22;6217;48.150;17.142;2023-02-08T14:38:51;3.90;63.40
12309;DHT22;6217;48.150;17.142;2023-02-08T14:43:03;3.90;63.60
12309;DHT22;6217;48.150;17.142;2023-02-08T14:52:03;3.80;63.80
12309;DHT22;6217;48.150;17.142;2023-02-08T14:56:25;3.80;63.80
12309;DHT22;6217;48.150;17.142;2023-02-08T15:00:35;3.80;63.80
12309;DHT22;6217;48.150;17.142;2023-02-08T15:04:44;3.90;63.80
12309;DHT22;6217;48.150;17.142;2023-02-08T15:08:54;3.80;63.80
12309;DHT22;6217;48.150;17.142;2023-02-08T15:13:03;3.90;64.00
12309;DHT22;6217;48.150;17.142;2023-02-08T15:21:31;3.80;64.00
12309;DHT22;6217;48.150;17.142;2023-02-08T15:25:41;3.70;64.10
12309;DHT22;6217;48.150;17.142;2023-02-08T15:29:47;3.60;64.40
12309;DHT22;6217;48.150;17.142;2023-02-08T15:33:53;3.60;64.50
12309;DHT22;6217;48.150;17.142;2023-02-08T15:38:00;3.60;64.60
12309;DHT22;6217;48.150;17.142;2023-02-08T15:42:21;3.50;64.70
12309;DHT22;6217;48.150;17.142;2023-02-08T15:46:28;3.50;64.90
12309;DHT22;6217;48.150;17.142;2023-02-08T15:50:35;3.50;64.90
12309;DHT22;6217;48.150;17.142;2023-02-08T15:54:42;3.40;65.00
12309;DHT22;6217;48.150;17.142;2023-02-08T15:58:52;3.30;65.00
12309;DHT22;6217;48.150;17.142;2023-02-08T16:03:21;3.30;65.30
12309;DHT22;6217;48.150;17.142;2023-02-08T16:07:36;3.20;66.10
12309;DHT22;6217;48.150;17.142;2023-02-08T16:11:46;3.20;65.60
12309;DHT22;6217;48.150;17.142;2023-02-08T16:15:57;3.10;65.60
12309;DHT22;6217;48.150;17.142;2023-02-08T16:20:30;3.00;65.70
12309;DHT22;6217;48.150;17.142;2023-02-08T16:24:37;2.90;65.80
12309;DHT22;6217;48.150;17.142;2023-02-08T16:28:51;2.90;65.90
12309;DHT22;6217;48.150;17.142;2023-02-08T16:33:05;2.80;66.20
12309;DHT22;6217;48.150;17.142;2023-02-08T16:37:28;2.70;66.40
12309;DHT22;6217;48.150;17.142;2023-02-08T16:46:22;2.60;66.60
12309;DHT22;6217;48.150;17.142;2023-02-08T16:50:30;2.50;66.80
12309;DHT22;6217;48.150;17.142;2023-02-08T16:54:36;2.40;66.80
12309;DHT22;6217;48.150;17.142;2023-02-08T16:58:42;2.40;66.90
12309;DHT22;6217;48.150;17.142;2023-02-08T17:02:48;2.30;67.10
12309;DHT22;6217;48.150;17.142;2023-02-08T17:06:54;2.20;67.40
12309;DHT22;6217;48.150;17.142;2023-02-08T17:11:00;2.20;67.60
12309;DHT22;6217;48.150;17.142;2023-02-08T17:15:06;2.20;67.80
12309;DHT22;6217;48.150;17.142;2023-02-08T17:19:16;2.20;67.80
12309;DHT22;6217;48.150;17.142;2023-02-08T17:23:22;2.20;67.90
12309;DHT22;6217;48.150;17.142;2023-02-08T17:27:28;2.00;68.20
12309;DHT22;6217;48.150;17.142;2023-02-08T17:31:34;2.00;68.50
12309;DHT22;6217;48.150;17.142;2023-02-08T17:35:41;2.10;68.50
12309;DHT22;6217;48.150;17.142;2023-02-08T17:39:47;2.20;68.50
12309;DHT22;6217;48.150;17.142;2023-02-08T17:43:54;2.20;68.40
12309;DHT22;6217;48.150;17.142;2023-02-08T17:48:00;2.30;68.50
12309;DHT22;6217;48.150;17.142;2023-02-08T17:52:06;2.30;68.40
12309;DHT22;6217;48.150;17.142;2023-02-08T17:56:17;2.30;68.40
12309;DHT22;6217;48.150;17.142;2023-02-08T18:00:25;2.20;68.50
12309;DHT22;6217;48.150;17.142;2023-02-08T18:04:31;2.30;68.70
12309;DHT22;6217;48.150;17.142;2023-02-08T18:08:36;2.30;68.60
12309;DHT22;6217;48.150;17.142;2023-02-08T18:12:43;2.40;68.60
12309;DHT22;6217;48.150;17.142;2023-02-08T18:16:49;2.60;68.50
12309;DHT22;6217;48.150;17.142;2023-02-08T18:20:55;2.60;68.40
12309;DHT22;6217;48.150;17.142;2023-02-08T18:25:01;2.70;68.50
12309;DHT22;6217;48.150;17.142;2023-02-08T18:29:08;2.70;68.40
12309;DHT22;6217;48.150;17.142;2023-02-08T18:33:15;2.80;68.50
12309;DHT22;6217;48.150;17.142;2023-02-08T18:37:21;2.80;68.40
12309;DHT22;6217;48.150;17.142;2023-02-08T18:41:28;2.80;68.50
12309;DHT22;6217;48.150;17.142;2023-02-08T18:45:35;2.80;68.50
12309;DHT22;6217;48.150;17.142;2023-02-08T18:49:40;2.70;68.50
12309;DHT22;6217;48.150;17.142;2023-02-08T18:53:49;2.70;68.70
12309;DHT22;6217;48.150;17.142;2023-02-08T18:57:56;2.70;68.70
12309;DHT22;6217;48.150;17.142;2023-02-08T19:02:02;2.60;68.70
12309;DHT22;6217;48.150;17.142;2023-02-08T19:06:16;2.50;68.90
12309;DHT22;6217;48.150;17.142;2023-02-08T19:10:25;2.40;69.10
12309;DHT22;6217;48.150;17.142;2023-02-08T19:14:31;2.30;69.20
12309;DHT22;6217;48.150;17.142;2023-02-08T19:18:38;2.20;69.20
12309;DHT22;6217;48.150;17.142;2023-02-08T19:22:44;2.20;69.30
12309;DHT22;6217;48.150;17.142;2023-02-08T19:26:50;2.00;69.40
12309;DHT22;6217;48.150;17.142;2023-02-08T19:31:08;2.00;69.60
12309;DHT22;6217;48.150;17.142;2023-02-08T19:35:15;1.90;69.70
12309;DHT22;6217;48.150;17.142;2023-02-08T19:39:23;1.90;69.80
12309;DHT22;6217;48.150;17.142;2023-02-08T19:43:31;1.80;69.90
12309;DHT22;6217;48.150;17.142;2023-02-08T19:47:36;1.80;70.10
12309;DHT22;6217;48.150;17.142;2023-02-08T19:51:43;1.70;70.10
12309;DHT22;6217;48.150;17.142;2023-02-08T19:56:02;1.60;70.30
12309;DHT22;6217;48.150;17.142;2023-02-08T20:00:13;1.60;70.40
12309;DHT22;6217;48.150;17.142;2023-02-08T20:04:20;1.60;70.40
12309;DHT22;6217;48.150;17.142;2023-02-08T20:08:26;1.50;70.50
12309;DHT22;6217;48.150;17.142;2023-02-08T20:12:32;1.50;70.60
12309;DHT22;6217;48.150;17.142;2023-02-08T20:16:38;1.50;70.70
12309;DHT22;6217;48.150;17.142;2023-02-08T20:20:44;1.40;70.80
12309;DHT22;6217;48.150;17.142;2023-02-08T20:24:50;1.40;71.00
12309;DHT22;6217;48.150;17.142;2023-02-08T20:28:57;1.30;71.00
12309;DHT22;6217;48.150;17.142;2023-02-08T20:33:03;1.20;71.20
12309;DHT22;6217;48.150;17.142;2023-02-08T20:37:09;1.10;71.50
12309;DHT22;6217;48.150;17.142;2023-02-08T20:41:18;1.10;71.90
12309;DHT22;6217;48.150;17.142;2023-02-08T20:45:24;1.10;71.90
12309;DHT22;6217;48.150;17.142;2023-02-08T20:49:30;1.00;72.00
12309;DHT22;6217;48.150;17.142;2023-02-08T20:53:38;1.00;72.00
12309;DHT22;6217;48.150;17.142;2023-02-08T20:57:45;1.00;72.20
12309;DHT22;6217;48.150;17.142;2023-02-08T21:01:51;1.00;72.20
12309;DHT22;6217;48.150;17.142;2023-02-08T21:05:57;1.00;72.10
12309;DHT22;6217;48.150;17.142;2023-02-08T21:10:03;1.00;72.20
12309;DHT22;6217;48.150;17.142;2023-02-08T21:14:11;0.90;72.10
12309;DHT22;6217;48.150;17.142;2023-02-08T21:18:23;0.90;72.20
12309;DHT22;6217;48.150;17.142;2023-02-08T21:22:29;0.90;72.30
12309;DHT22;6217;48.150;17.142;2023-02-08T21:26:35;0.80;72.50
12309;DHT22;6217;48.150;17.142;2023-02-08T21:30:40;0.80;72.60
12309;DHT22;6217;48.150;17.142;2023-02-08T21:34:48;0.70;72.60
12309;DHT22;6217;48.150;17.142;2023-02-08T21:38:54;0.70;72.80
12309;DHT22;6217;48.150;17.142;2023-02-08T21:43:01;0.70;72.90
12309;DHT22;6217;48.150;17.142;2023-02-08T21:47:07;0.70;72.90
12309;DHT22;6217;48.150;17.142;2023-02-08T21:51:13;0.60;73.00
12309;DHT22;6217;48.150;17.142;2023-02-08T21:55:37;0.60;73.30
12309;DHT22;6217;48.150;17.142;2023-02-08T21:59:45;0.60;73.30
12309;DHT22;6217;48.150;17.142;2023-02-08T22:03:52;0.60;73.30
12309;DHT22;6217;48.150;17.142;2023-02-08T22:07:58;0.50;73.20
12309;DHT22;6217;48.150;17.142;2023-02-08T22:12:05;0.50;73.30
12309;DHT22;6217;48.150;17.142;2023-02-08T22:16:10;0.50;73.50
12309;DHT22;6217;48.150;17.142;2023-02-08T22:20:17;0.50;73.40
12309;DHT22;6217;48.150;17.142;2023-02-08T22:24:23;0.50;73.50
12309;DHT22;6217;48.150;17.142;2023-02-08T22:28:28;0.50;73.50
12309;DHT22;6217;48.150;17.142;2023-02-08T22:32:47;0.50;73.50
12309;DHT22;6217;48.150;17.142;2023-02-08T22:36:53;0.40;73.70
12309;DHT22;6217;48.150;17.142;2023-02-08T22:40:59;0.40;73.80
12309;DHT22;6217;48.150;17.142;2023-02-08T22:45:22;0.40;73.80
12309;DHT22;6217;48.150;17.142;2023-02-08T22:49:28;0.30;73.70
12309;DHT22;6217;48.150;17.142;2023-02-08T22:53:34;0.40;73.70
12309;DHT22;6217;48.150;17.142;2023-02-08T22:57:40;0.30;73.90
12309;DHT22;6217;48.150;17.142;2023-02-08T23:01:47;0.20;74.10
12309;DHT22;6217;48.150;17.142;2023-02-08T23:05:53;0.20;74.10
12309;DHT22;6217;48.150;17.142;2023-02-08T23:09:59;0.20;74.00
12309;DHT22;6217;48.150;17.142;2023-02-08T23:14:05;0.10;74.20
12309;DHT22;6217;48.150;17.142;2023-02-08T23:18:11;0.10;74.60
12309;DHT22;6217;48.150;17.142;2023-02-08T23:22:17;0.00;74.70
12309;DHT22;6217;48.150;17.142;2023-02-08T23:26:23;0.00;74.70
12309;DHT22;6217;48.150;17.142;2023-02-08T23:30:29;0.00;74.90
12309;DHT22;6217;48.150;17.142;2023-02-08T23:34:35;0.00;74.80
12309;DHT22;6217;48.150;17.142;2023-02-08T23:38:41;0.10;74.80
12309;DHT22;6217;48.150;17.142;2023-02-08T23:42:47;0.00;74.70
12309;DHT22;6217;48.150;17.142;2023-02-08T23:46:53;0.00;74.80
12309;DHT22;6217;48.150;17.142;2023-02-08T23:51:00;-0.10;74.90
12309;DHT22;6217;48.150;17.142;2023-02-08T23:55:08;-0.10;75.00
12309;DHT22;6217;48.150;17.142;2023-02-08T23:59:14;-0.10;75.10
